sensor_id;sensor_type;location;lat;lon;timestamp;P1;durP1;ratioP1;P2;durP2;ratioP2
20038;SDS011;21737;42.868;25.320;2023-04-29T00:02:37;17.03;;;7.77;;
20038;SDS011;21737;42.868;25.320;2023-04-29T00:05:39;11.57;;;8.07;;
20038;SDS011;21737;42.868;25.320;2023-04-29T00:08:41;10.93;;;7.97;;
20038;SDS011;21737;42.868;25.320;2023-04-29T00:11:43;13.50;;;7.73;;
20038;SDS011;21737;42.868;25.320;2023-04-29T00:14:44;12.27;;;8.60;;
20038;SDS011;21737;42.868;25.320;2023-04-29T00:17:46;16.17;;;8.47;;
20038;SDS011;21737;42.868;25.320;2023-04-29T00:20:48;22.97;;;8.40;;
20038;SDS011;21737;42.868;25.320;2023-04-29T00:23:50;14.17;;;8.93;;
20038;SDS011;21737;42.868;25.320;2023-04-29T00:26:52;17.10;;;9.03;;
20038;SDS011;21737;42.868;25.320;2023-04-29T00:29:53;16.50;;;9.23;;
20038;SDS011;21737;42.868;25.320;2023-04-29T00:32:55;14.40;;;8.33;;
20038;SDS011;21737;42.868;25.320;2023-04-29T00:35:57;14.00;;;8.53;;
20038;SDS011;21737;42.868;25.320;2023-04-29T00:38:58;13.47;;;9.00;;
20038;SDS011;21737;42.868;25.320;2023-04-29T00:42:00;16.63;;;8.73;;
20038;SDS011;21737;42.868;25.320;2023-04-29T00:45:04;11.70;;;7.17;;
20038;SDS011;21737;42.868;25.320;2023-04-29T00:48:08;15.00;;;9.03;;
20038;SDS011;21737;42.868;25.320;2023-04-29T00:51:10;11.87;;;8.37;;
20038;SDS011;21737;42.868;25.320;2023-04-29T00:54:13;12.13;;;8.00;;
20038;SDS011;21737;42.868;25.320;2023-04-29T00:57:14;11.03;;;7.63;;
20038;SDS011;21737;42.868;25.320;2023-04-29T01:00:17;13.63;;;8.37;;
20038;SDS011;21737;42.868;25.320;2023-04-29T01:03:19;13.50;;;7.70;;
20038;SDS011;21737;42.868;25.320;2023-04-29T01:16:22;13.37;;;8.30;;
20038;SDS011;21737;42.868;25.320;2023-04-29T01:19:43;12.83;;;7.87;;
20038;SDS011;21737;42.868;25.320;2023-04-29T01:22:48;14.33;;;7.90;;
20038;SDS011;21737;42.868;25.320;2023-04-29T01:25:50;14.53;;;8.70;;
20038;SDS011;21737;42.868;25.320;2023-04-29T01:42:35;13.63;;;9.30;;
20038;SDS011;21737;42.868;25.320;2023-04-29T01:45:44;13.17;;;7.80;;
20038;SDS011;21737;42.868;25.320;2023-04-29T01:48:47;16.33;;;8.07;;
20038;SDS011;21737;42.868;25.320;2023-04-29T01:51:49;13.60;;;8.50;;
20038;SDS011;21737;42.868;25.320;2023-04-29T01:54:51;13.13;;;7.27;;
20038;SDS011;21737;42.868;25.320;2023-04-29T01:57:54;12.77;;;7.70;;
20038;SDS011;21737;42.868;25.320;2023-04-29T02:01:14;13.47;;;7.63;;
20038;SDS011;21737;42.868;25.320;2023-04-29T02:04:16;13.40;;;7.80;;
20038;SDS011;21737;42.868;25.320;2023-04-29T02:07:18;13.53;;;8.33;;
20038;SDS011;21737;42.868;25.320;2023-04-29T02:10:21;13.13;;;8.10;;
20038;SDS011;21737;42.868;25.320;2023-04-29T02:13:29;10.70;;;8.03;;
20038;SDS011;21737;42.868;25.320;2023-04-29T02:16:31;11.80;;;7.10;;
20038;SDS011;21737;42.868;25.320;2023-04-29T02:19:36;12.80;;;8.07;;
20038;SDS011;21737;42.868;25.320;2023-04-29T02:22:38;19.00;;;8.00;;
20038;SDS011;21737;42.868;25.320;2023-04-29T02:25:40;11.77;;;7.57;;
20038;SDS011;21737;42.868;25.320;2023-04-29T02:28:41;12.60;;;7.60;;
20038;SDS011;21737;42.868;25.320;2023-04-29T02:31:43;14.70;;;7.80;;
20038;SDS011;21737;42.868;25.320;2023-04-29T02:34:45;12.03;;;7.57;;
20038;SDS011;21737;42.868;25.320;2023-04-29T02:37:47;15.60;;;7.80;;
20038;SDS011;21737;42.868;25.320;2023-04-29T02:40:48;11.70;;;7.77;;
20038;SDS011;21737;42.868;25.320;2023-04-29T02:43:50;9.93;;;7.10;;
20038;SDS011;21737;42.868;25.320;2023-04-29T02:46:52;10.27;;;7.37;;
20038;SDS011;21737;42.868;25.320;2023-04-29T02:49:54;14.50;;;7.13;;
20038;SDS011;21737;42.868;25.320;2023-04-29T02:52:56;13.90;;;7.50;;
20038;SDS011;21737;42.868;25.320;2023-04-29T02:55:58;11.80;;;7.57;;
20038;SDS011;21737;42.868;25.320;2023-04-29T02:59:00;11.20;;;7.60;;
20038;SDS011;21737;42.868;25.320;2023-04-29T03:02:01;13.47;;;8.23;;
20038;SDS011;21737;42.868;25.320;2023-04-29T03:05:03;15.27;;;7.40;;
20038;SDS011;21737;42.868;25.320;2023-04-29T03:08:05;13.67;;;7.80;;
20038;SDS011;21737;42.868;25.320;2023-04-29T03:11:07;11.37;;;7.03;;
20038;SDS011;21737;42.868;25.320;2023-04-29T03:14:09;16.40;;;8.00;;
20038;SDS011;21737;42.868;25.320;2023-04-29T03:17:12;14.77;;;8.40;;
20038;SDS011;21737;42.868;25.320;2023-04-29T03:20:14;12.97;;;7.60;;
20038;SDS011;21737;42.868;25.320;2023-04-29T03:23:16;14.00;;;7.63;;
20038;SDS011;21737;42.868;25.320;2023-04-29T03:26:18;14.97;;;8.03;;
20038;SDS011;21737;42.868;25.320;2023-04-29T03:29:20;18.30;;;8.57;;
20038;SDS011;21737;42.868;25.320;2023-04-29T03:32:22;12.63;;;7.87;;
20038;SDS011;21737;42.868;25.320;2023-04-29T03:35:24;13.97;;;7.13;;
20038;SDS011;21737;42.868;25.320;2023-04-29T03:38:45;14.17;;;7.30;;
20038;SDS011;21737;42.868;25.320;2023-04-29T03:41:49;8.63;;;6.50;;
20038;SDS011;21737;42.868;25.320;2023-04-29T03:44:50;10.30;;;6.77;;
20038;SDS011;21737;42.868;25.320;2023-04-29T03:47:52;17.33;;;7.50;;
20038;SDS011;21737;42.868;25.320;2023-04-29T03:50:54;16.83;;;7.37;;
20038;SDS011;21737;42.868;25.320;2023-04-29T03:53:56;11.43;;;7.30;;
20038;SDS011;21737;42.868;25.320;2023-04-29T03:56:59;12.13;;;7.13;;
20038;SDS011;21737;42.868;25.320;2023-04-29T04:00:03;11.23;;;6.33;;
20038;SDS011;21737;42.868;25.320;2023-04-29T04:03:13;11.53;;;6.90;;
20038;SDS011;21737;42.868;25.320;2023-04-29T04:06:15;11.13;;;6.80;;
20038;SDS011;21737;42.868;25.320;2023-04-29T04:09:20;10.17;;;6.70;;
20038;SDS011;21737;42.868;25.320;2023-04-29T04:12:21;10.37;;;6.30;;
20038;SDS011;21737;42.868;25.320;2023-04-29T04:15:23;8.07;;;6.30;;
20038;SDS011;21737;42.868;25.320;2023-04-29T04:18:26;8.47;;;6.30;;
20038;SDS011;21737;42.868;25.320;2023-04-29T04:21:30;12.63;;;6.07;;
20038;SDS011;21737;42.868;25.320;2023-04-29T04:24:38;7.90;;;5.47;;
20038;SDS011;21737;42.868;25.320;2023-04-29T04:27:39;8.27;;;6.20;;
20038;SDS011;21737;42.868;25.320;2023-04-29T04:30:46;13.90;;;6.67;;
20038;SDS011;21737;42.868;25.320;2023-04-29T04:33:57;10.87;;;5.63;;
20038;SDS011;21737;42.868;25.320;2023-04-29T04:37:01;8.13;;;5.57;;
20038;SDS011;21737;42.868;25.320;2023-04-29T04:40:04;7.67;;;4.90;;
20038;SDS011;21737;42.868;25.320;2023-04-29T04:43:15;8.30;;;6.07;;
20038;SDS011;21737;42.868;25.320;2023-04-29T04:46:18;8.37;;;5.67;;
20038;SDS011;21737;42.868;25.320;2023-04-29T04:49:34;8.07;;;5.00;;
20038;SDS011;21737;42.868;25.320;2023-04-29T04:52:36;9.20;;;5.47;;
20038;SDS011;21737;42.868;25.320;2023-04-29T04:55:53;6.50;;;5.10;;
20038;SDS011;21737;42.868;25.320;2023-04-29T04:58:55;10.80;;;5.67;;
20038;SDS011;21737;42.868;25.320;2023-04-29T05:01:57;12.83;;;5.50;;
20038;SDS011;21737;42.868;25.320;2023-04-29T05:04:59;6.63;;;4.67;;
20038;SDS011;21737;42.868;25.320;2023-04-29T05:08:04;9.77;;;5.40;;
20038;SDS011;21737;42.868;25.320;2023-04-29T05:11:18;9.17;;;5.47;;
20038;SDS011;21737;42.868;25.320;2023-04-29T05:14:37;10.07;;;5.13;;
20038;SDS011;21737;42.868;25.320;2023-04-29T05:17:38;6.40;;;4.40;;
20038;SDS011;21737;42.868;25.320;2023-04-29T05:20:40;11.83;;;5.60;;
20038;SDS011;21737;42.868;25.320;2023-04-29T05:23:42;16.27;;;7.60;;
20038;SDS011;21737;42.868;25.320;2023-04-29T05:26:43;17.83;;;8.80;;
20038;SDS011;21737;42.868;25.320;2023-04-29T05:29:46;8.20;;;5.90;;
20038;SDS011;21737;42.868;25.320;2023-04-29T05:32:48;8.33;;;6.07;;
20038;SDS011;21737;42.868;25.320;2023-04-29T05:35:52;12.57;;;7.73;;
20038;SDS011;21737;42.868;25.320;2023-04-29T05:38:53;17.17;;;8.43;;
20038;SDS011;21737;42.868;25.320;2023-04-29T05:41:56;15.13;;;8.70;;
20038;SDS011;21737;42.868;25.320;2023-04-29T05:45:09;13.47;;;8.07;;
20038;SDS011;21737;42.868;25.320;2023-04-29T05:48:10;12.07;;;7.57;;
20038;SDS011;21737;42.868;25.320;2023-04-29T05:51:12;12.43;;;8.53;;
20038;SDS011;21737;42.868;25.320;2023-04-29T05:54:14;15.43;;;8.93;;
20038;SDS011;21737;42.868;25.320;2023-04-29T05:57:18;14.63;;;8.87;;
20038;SDS011;21737;42.868;25.320;2023-04-29T06:00:20;20.73;;;9.53;;
20038;SDS011;21737;42.868;25.320;2023-04-29T06:03:22;16.47;;;8.10;;
20038;SDS011;21737;42.868;25.320;2023-04-29T06:06:41;16.33;;;10.00;;
20038;SDS011;21737;42.868;25.320;2023-04-29T06:09:59;18.77;;;10.87;;
20038;SDS011;21737;42.868;25.320;2023-04-29T06:13:04;11.77;;;6.77;;
20038;SDS011;21737;42.868;25.320;2023-04-29T06:16:06;5.77;;;4.23;;
20038;SDS011;21737;42.868;25.320;2023-04-29T06:19:08;7.77;;;4.47;;
20038;SDS011;21737;42.868;25.320;2023-04-29T06:22:12;7.77;;;5.27;;
20038;SDS011;21737;42.868;25.320;2023-04-29T06:25:20;10.73;;;5.17;;
20038;SDS011;21737;42.868;25.320;2023-04-29T06:28:24;5.60;;;3.90;;
20038;SDS011;21737;42.868;25.320;2023-04-29T06:31:26;7.57;;;4.53;;
20038;SDS011;21737;42.868;25.320;2023-04-29T06:34:32;13.50;;;5.60;;
20038;SDS011;21737;42.868;25.320;2023-04-29T06:37:54;8.07;;;4.77;;
20038;SDS011;21737;42.868;25.320;2023-04-29T06:41:18;7.53;;;4.87;;
20038;SDS011;21737;42.868;25.320;2023-04-29T06:44:28;10.27;;;7.73;;
20038;SDS011;21737;42.868;25.320;2023-04-29T06:47:47;9.13;;;5.60;;
20038;SDS011;21737;42.868;25.320;2023-04-29T06:51:00;12.37;;;6.60;;
20038;SDS011;21737;42.868;25.320;2023-04-29T06:54:02;9.90;;;7.20;;
20038;SDS011;21737;42.868;25.320;2023-04-29T06:57:04;12.70;;;7.80;;
20038;SDS011;21737;42.868;25.320;2023-04-29T07:00:06;11.27;;;7.97;;
20038;SDS011;21737;42.868;25.320;2023-04-29T07:03:08;10.83;;;8.27;;
20038;SDS011;21737;42.868;25.320;2023-04-29T07:06:12;13.77;;;7.63;;
20038;SDS011;21737;42.868;25.320;2023-04-29T07:09:14;10.50;;;7.00;;
20038;SDS011;21737;42.868;25.320;2023-04-29T07:12:15;12.37;;;6.47;;
20038;SDS011;21737;42.868;25.320;2023-04-29T07:15:17;9.85;;;4.88;;
20038;SDS011;21737;42.868;25.320;2023-04-29T07:18:19;7.63;;;3.67;;
20038;SDS011;21737;42.868;25.320;2023-04-29T07:21:21;10.95;;;4.35;;
20038;SDS011;21737;42.868;25.320;2023-04-29T07:24:23;5.35;;;3.75;;
20038;SDS011;21737;42.868;25.320;2023-04-29T07:27:25;7.68;;;4.07;;
20038;SDS011;21737;42.868;25.320;2023-04-29T07:30:26;5.28;;;3.45;;
20038;SDS011;21737;42.868;25.320;2023-04-29T07:33:28;7.30;;;4.03;;
20038;SDS011;21737;42.868;25.320;2023-04-29T07:36:31;6.88;;;3.40;;
20038;SDS011;21737;42.868;25.320;2023-04-29T07:39:34;6.10;;;3.50;;
20038;SDS011;21737;42.868;25.320;2023-04-29T07:42:37;7.65;;;3.10;;
20038;SDS011;21737;42.868;25.320;2023-04-29T07:45:40;9.18;;;4.47;;
20038;SDS011;21737;42.868;25.320;2023-04-29T07:48:41;9.40;;;8.40;;
20038;SDS011;21737;42.868;25.320;2023-04-29T07:51:44;6.13;;;3.35;;
20038;SDS011;21737;42.868;25.320;2023-04-29T07:54:46;6.85;;;4.88;;
20038;SDS011;21737;42.868;25.320;2023-04-29T07:57:47;5.22;;;3.20;;
20038;SDS011;21737;42.868;25.320;2023-04-29T08:00:49;6.40;;;3.90;;
20038;SDS011;21737;42.868;25.320;2023-04-29T08:03:51;4.28;;;3.03;;
20038;SDS011;21737;42.868;25.320;2023-04-29T08:06:54;5.45;;;3.78;;
20038;SDS011;21737;42.868;25.320;2023-04-29T08:09:56;3.97;;;3.45;;
20038;SDS011;21737;42.868;25.320;2023-04-29T08:12:58;4.78;;;2.80;;
20038;SDS011;21737;42.868;25.320;2023-04-29T08:15:59;9.55;;;3.95;;
20038;SDS011;21737;42.868;25.320;2023-04-29T08:19:01;9.35;;;4.18;;
20038;SDS011;21737;42.868;25.320;2023-04-29T08:22:03;7.30;;;3.53;;
20038;SDS011;21737;42.868;25.320;2023-04-29T08:25:05;5.85;;;3.33;;
20038;SDS011;21737;42.868;25.320;2023-04-29T08:28:07;5.72;;;3.80;;
20038;SDS011;21737;42.868;25.320;2023-04-29T08:31:19;13.52;;;7.35;;
20038;SDS011;21737;42.868;25.320;2023-04-29T08:34:21;4.32;;;3.30;;
20038;SDS011;21737;42.868;25.320;2023-04-29T08:37:22;7.13;;;3.70;;
20038;SDS011;21737;42.868;25.320;2023-04-29T08:40:24;5.30;;;3.35;;
20038;SDS011;21737;42.868;25.320;2023-04-29T08:43:26;6.20;;;3.40;;
20038;SDS011;21737;42.868;25.320;2023-04-29T08:46:29;7.20;;;4.07;;
20038;SDS011;21737;42.868;25.320;2023-04-29T08:49:34;4.63;;;3.15;;
20038;SDS011;21737;42.868;25.320;2023-04-29T08:52:41;4.68;;;3.80;;
20038;SDS011;21737;42.868;25.320;2023-04-29T08:55:46;4.95;;;2.90;;
20038;SDS011;21737;42.868;25.320;2023-04-29T08:58:49;5.15;;;4.03;;
20038;SDS011;21737;42.868;25.320;2023-04-29T09:01:54;5.72;;;3.38;;
20038;SDS011;21737;42.868;25.320;2023-04-29T09:05:03;3.58;;;2.60;;
20038;SDS011;21737;42.868;25.320;2023-04-29T09:08:07;4.50;;;3.00;;
20038;SDS011;21737;42.868;25.320;2023-04-29T09:11:09;3.40;;;2.75;;
20038;SDS011;21737;42.868;25.320;2023-04-29T09:14:12;4.72;;;3.22;;
20038;SDS011;21737;42.868;25.320;2023-04-29T09:17:15;5.18;;;3.45;;
20038;SDS011;21737;42.868;25.320;2023-04-29T09:23:22;8.85;;;3.35;;
20038;SDS011;21737;42.868;25.320;2023-04-29T09:26:41;4.57;;;3.10;;
20038;SDS011;21737;42.868;25.320;2023-04-29T09:29:58;7.15;;;3.10;;
20038;SDS011;21737;42.868;25.320;2023-04-29T09:33:05;5.53;;;3.67;;
20038;SDS011;21737;42.868;25.320;2023-04-29T09:36:07;3.70;;;2.85;;
20038;SDS011;21737;42.868;25.320;2023-04-29T09:39:17;5.18;;;3.10;;
20038;SDS011;21737;42.868;25.320;2023-04-29T09:42:19;4.90;;;3.50;;
20038;SDS011;21737;42.868;25.320;2023-04-29T09:45:33;4.73;;;3.10;;
20038;SDS011;21737;42.868;25.320;2023-04-29T09:48:36;5.60;;;3.33;;
20038;SDS011;21737;42.868;25.320;2023-04-29T09:51:50;4.30;;;3.03;;
20038;SDS011;21737;42.868;25.320;2023-04-29T09:54:52;6.27;;;3.67;;
20038;SDS011;21737;42.868;25.320;2023-04-29T09:58:05;7.43;;;3.70;;
20038;SDS011;21737;42.868;25.320;2023-04-29T10:01:06;5.40;;;3.33;;
20038;SDS011;21737;42.868;25.320;2023-04-29T10:04:09;4.17;;;3.47;;
20038;SDS011;21737;42.868;25.320;2023-04-29T10:07:13;6.70;;;3.57;;
20038;SDS011;21737;42.868;25.320;2023-04-29T10:10:15;4.97;;;3.10;;
20038;SDS011;21737;42.868;25.320;2023-04-29T10:13:17;6.17;;;3.20;;
20038;SDS011;21737;42.868;25.320;2023-04-29T10:16:27;6.03;;;3.20;;
20038;SDS011;21737;42.868;25.320;2023-04-29T10:19:34;7.00;;;3.20;;
20038;SDS011;21737;42.868;25.320;2023-04-29T10:22:43;5.57;;;3.20;;
20038;SDS011;21737;42.868;25.320;2023-04-29T10:25:46;5.20;;;3.03;;
20038;SDS011;21737;42.868;25.320;2023-04-29T10:28:49;4.37;;;2.80;;
20038;SDS011;21737;42.868;25.320;2023-04-29T10:31:52;6.80;;;3.07;;
20038;SDS011;21737;42.868;25.320;2023-04-29T10:34:54;9.47;;;4.20;;
20038;SDS011;21737;42.868;25.320;2023-04-29T10:37:57;6.73;;;3.63;;
20038;SDS011;21737;42.868;25.320;2023-04-29T10:41:02;5.90;;;3.70;;
20038;SDS011;21737;42.868;25.320;2023-04-29T10:44:04;8.47;;;3.30;;
20038;SDS011;21737;42.868;25.320;2023-04-29T10:47:18;6.53;;;3.63;;
20038;SDS011;21737;42.868;25.320;2023-04-29T10:50:20;5.83;;;2.93;;
20038;SDS011;21737;42.868;25.320;2023-04-29T10:53:22;4.23;;;3.10;;
20038;SDS011;21737;42.868;25.320;2023-04-29T10:56:34;4.87;;;3.33;;
20038;SDS011;21737;42.868;25.320;2023-04-29T11:02:41;9.57;;;3.03;;
20038;SDS011;21737;42.868;25.320;2023-04-29T11:05:43;5.80;;;2.80;;
20038;SDS011;21737;42.868;25.320;2023-04-29T11:08:46;7.43;;;3.50;;
20038;SDS011;21737;42.868;25.320;2023-04-29T11:14:50;4.27;;;3.00;;
20038;SDS011;21737;42.868;25.320;2023-04-29T11:17:52;5.87;;;4.00;;
20038;SDS011;21737;42.868;25.320;2023-04-29T11:24:05;6.03;;;3.00;;
20038;SDS011;21737;42.868;25.320;2023-04-29T11:27:07;4.90;;;2.80;;
20038;SDS011;21737;42.868;25.320;2023-04-29T11:30:08;4.90;;;2.90;;
20038;SDS011;21737;42.868;25.320;2023-04-29T11:33:10;5.80;;;3.30;;
20038;SDS011;21737;42.868;25.320;2023-04-29T11:36:12;5.47;;;2.90;;
20038;SDS011;21737;42.868;25.320;2023-04-29T11:39:15;4.83;;;2.87;;
20038;SDS011;21737;42.868;25.320;2023-04-29T11:42:20;4.80;;;3.23;;
20038;SDS011;21737;42.868;25.320;2023-04-29T11:45:22;8.27;;;3.47;;
20038;SDS011;21737;42.868;25.320;2023-04-29T11:48:24;5.13;;;3.27;;
20038;SDS011;21737;42.868;25.320;2023-04-29T11:51:26;7.33;;;3.20;;
20038;SDS011;21737;42.868;25.320;2023-04-29T11:54:29;9.13;;;4.80;;
20038;SDS011;21737;42.868;25.320;2023-04-29T11:57:31;7.30;;;3.57;;
20038;SDS011;21737;42.868;25.320;2023-04-29T12:00:32;5.77;;;3.47;;
20038;SDS011;21737;42.868;25.320;2023-04-29T12:03:34;6.93;;;3.20;;
20038;SDS011;21737;42.868;25.320;2023-04-29T12:06:37;4.20;;;3.03;;
20038;SDS011;21737;42.868;25.320;2023-04-29T12:09:40;5.53;;;3.30;;
20038;SDS011;21737;42.868;25.320;2023-04-29T12:12:42;4.77;;;3.13;;
20038;SDS011;21737;42.868;25.320;2023-04-29T12:15:46;5.80;;;3.23;;
20038;SDS011;21737;42.868;25.320;2023-04-29T12:18:50;6.47;;;3.40;;
20038;SDS011;21737;42.868;25.320;2023-04-29T12:21:52;3.63;;;3.27;;
20038;SDS011;21737;42.868;25.320;2023-04-29T12:24:54;5.97;;;3.60;;
20038;SDS011;21737;42.868;25.320;2023-04-29T12:28:00;6.47;;;3.50;;
20038;SDS011;21737;42.868;25.320;2023-04-29T12:31:05;5.93;;;3.80;;
20038;SDS011;21737;42.868;25.320;2023-04-29T12:34:09;3.50;;;2.70;;
20038;SDS011;21737;42.868;25.320;2023-04-29T12:37:11;7.37;;;3.10;;
20038;SDS011;21737;42.868;25.320;2023-04-29T12:40:13;5.50;;;2.93;;
20038;SDS011;21737;42.868;25.320;2023-04-29T12:43:17;6.17;;;3.40;;
20038;SDS011;21737;42.868;25.320;2023-04-29T12:46:19;4.10;;;3.07;;
20038;SDS011;21737;42.868;25.320;2023-04-29T12:49:23;3.87;;;3.10;;
20038;SDS011;21737;42.868;25.320;2023-04-29T12:52:24;4.40;;;3.33;;
20038;SDS011;21737;42.868;25.320;2023-04-29T12:55:26;4.87;;;3.20;;
20038;SDS011;21737;42.868;25.320;2023-04-29T12:58:28;5.70;;;3.03;;
20038;SDS011;21737;42.868;25.320;2023-04-29T13:01:30;3.93;;;2.90;;
20038;SDS011;21737;42.868;25.320;2023-04-29T13:04:33;4.37;;;3.10;;
20038;SDS011;21737;42.868;25.320;2023-04-29T13:07:35;4.33;;;3.10;;
20038;SDS011;21737;42.868;25.320;2023-04-29T13:10:37;7.67;;;3.10;;
20038;SDS011;21737;42.868;25.320;2023-04-29T13:13:39;5.60;;;3.20;;
20038;SDS011;21737;42.868;25.320;2023-04-29T13:16:41;5.17;;;3.33;;
20038;SDS011;21737;42.868;25.320;2023-04-29T13:19:42;6.00;;;3.23;;
20038;SDS011;21737;42.868;25.320;2023-04-29T13:22:52;5.00;;;2.90;;
20038;SDS011;21737;42.868;25.320;2023-04-29T13:25:54;5.03;;;2.80;;
20038;SDS011;21737;42.868;25.320;2023-04-29T13:28:55;5.13;;;2.80;;
20038;SDS011;21737;42.868;25.320;2023-04-29T13:31:57;5.17;;;2.67;;
20038;SDS011;21737;42.868;25.320;2023-04-29T13:34:59;5.43;;;3.00;;
20038;SDS011;21737;42.868;25.320;2023-04-29T13:38:01;3.60;;;2.90;;
20038;SDS011;21737;42.868;25.320;2023-04-29T13:41:03;6.53;;;2.70;;
20038;SDS011;21737;42.868;25.320;2023-04-29T13:44:10;5.27;;;2.93;;
20038;SDS011;21737;42.868;25.320;2023-04-29T13:47:31;4.23;;;2.60;;
20038;SDS011;21737;42.868;25.320;2023-04-29T13:50:32;4.17;;;2.87;;
20038;SDS011;21737;42.868;25.320;2023-04-29T13:53:47;4.23;;;2.57;;
20038;SDS011;21737;42.868;25.320;2023-04-29T13:56:52;4.80;;;2.87;;
20038;SDS011;21737;42.868;25.320;2023-04-29T14:00:13;4.70;;;2.80;;
20038;SDS011;21737;42.868;25.320;2023-04-29T14:03:36;4.67;;;2.97;;
20038;SDS011;21737;42.868;25.320;2023-04-29T14:06:38;5.17;;;3.03;;
20038;SDS011;21737;42.868;25.320;2023-04-29T14:09:40;4.40;;;3.20;;
20038;SDS011;21737;42.868;25.320;2023-04-29T14:12:41;6.03;;;3.30;;
20038;SDS011;21737;42.868;25.320;2023-04-29T14:15:43;5.33;;;2.97;;
20038;SDS011;21737;42.868;25.320;2023-04-29T14:18:45;5.60;;;2.77;;
20038;SDS011;21737;42.868;25.320;2023-04-29T14:21:46;4.63;;;2.90;;
20038;SDS011;21737;42.868;25.320;2023-04-29T14:24:48;7.40;;;2.90;;
20038;SDS011;21737;42.868;25.320;2023-04-29T14:27:50;4.97;;;2.90;;
20038;SDS011;21737;42.868;25.320;2023-04-29T14:30:51;6.60;;;3.07;;
20038;SDS011;21737;42.868;25.320;2023-04-29T14:33:53;5.40;;;3.00;;
20038;SDS011;21737;42.868;25.320;2023-04-29T14:36:55;5.17;;;3.43;;
20038;SDS011;21737;42.868;25.320;2023-04-29T14:39:59;6.13;;;3.10;;
20038;SDS011;21737;42.868;25.320;2023-04-29T14:43:01;5.97;;;3.20;;
20038;SDS011;21737;42.868;25.320;2023-04-29T14:46:04;6.10;;;2.90;;
20038;SDS011;21737;42.868;25.320;2023-04-29T14:49:06;5.43;;;3.07;;
20038;SDS011;21737;42.868;25.320;2023-04-29T14:52:08;8.00;;;3.00;;
20038;SDS011;21737;42.868;25.320;2023-04-29T14:55:10;5.07;;;2.93;;
20038;SDS011;21737;42.868;25.320;2023-04-29T14:58:11;6.00;;;3.07;;
20038;SDS011;21737;42.868;25.320;2023-04-29T15:01:13;5.13;;;3.00;;
20038;SDS011;21737;42.868;25.320;2023-04-29T15:04:15;10.20;;;3.27;;
20038;SDS011;21737;42.868;25.320;2023-04-29T15:07:17;6.30;;;3.70;;
20038;SDS011;21737;42.868;25.320;2023-04-29T15:10:19;3.87;;;2.70;;
20038;SDS011;21737;42.868;25.320;2023-04-29T15:13:21;6.77;;;3.73;;
20038;SDS011;21737;42.868;25.320;2023-04-29T15:16:22;4.37;;;3.03;;
20038;SDS011;21737;42.868;25.320;2023-04-29T15:19:24;6.00;;;3.40;;
20038;SDS011;21737;42.868;25.320;2023-04-29T15:22:26;6.20;;;3.60;;
20038;SDS011;21737;42.868;25.320;2023-04-29T15:25:28;8.90;;;3.93;;
20038;SDS011;21737;42.868;25.320;2023-04-29T15:28:30;5.70;;;3.53;;
20038;SDS011;21737;42.868;25.320;2023-04-29T15:31:32;4.97;;;3.30;;
20038;SDS011;21737;42.868;25.320;2023-04-29T15:34:33;4.50;;;3.47;;
20038;SDS011;21737;42.868;25.320;2023-04-29T15:37:35;5.57;;;3.30;;
20038;SDS011;21737;42.868;25.320;2023-04-29T15:40:37;4.93;;;3.50;;
20038;SDS011;21737;42.868;25.320;2023-04-29T15:43:39;7.10;;;4.77;;
20038;SDS011;21737;42.868;25.320;2023-04-29T15:46:40;6.30;;;3.90;;
20038;SDS011;21737;42.868;25.320;2023-04-29T15:49:43;6.63;;;3.70;;
20038;SDS011;21737;42.868;25.320;2023-04-29T15:52:45;7.87;;;4.60;;
20038;SDS011;21737;42.868;25.320;2023-04-29T15:55:46;10.53;;;5.37;;
20038;SDS011;21737;42.868;25.320;2023-04-29T15:58:48;6.50;;;3.20;;
20038;SDS011;21737;42.868;25.320;2023-04-29T16:01:50;6.27;;;3.13;;
20038;SDS011;21737;42.868;25.320;2023-04-29T16:04:52;5.37;;;3.73;;
20038;SDS011;21737;42.868;25.320;2023-04-29T16:07:54;6.97;;;3.40;;
20038;SDS011;21737;42.868;25.320;2023-04-29T16:10:55;15.27;;;9.13;;
20038;SDS011;21737;42.868;25.320;2023-04-29T16:13:57;5.23;;;3.10;;
20038;SDS011;21737;42.868;25.320;2023-04-29T16:16:59;5.87;;;3.40;;
20038;SDS011;21737;42.868;25.320;2023-04-29T16:20:00;8.20;;;3.97;;
20038;SDS011;21737;42.868;25.320;2023-04-29T16:23:02;10.60;;;4.03;;
20038;SDS011;21737;42.868;25.320;2023-04-29T16:26:04;7.10;;;4.20;;
20038;SDS011;21737;42.868;25.320;2023-04-29T16:29:09;8.13;;;5.07;;
20038;SDS011;21737;42.868;25.320;2023-04-29T16:32:12;7.53;;;4.83;;
20038;SDS011;21737;42.868;25.320;2023-04-29T16:35:14;9.50;;;4.40;;
20038;SDS011;21737;42.868;25.320;2023-04-29T16:38:16;7.70;;;4.80;;
20038;SDS011;21737;42.868;25.320;2023-04-29T16:41:18;9.10;;;4.70;;
20038;SDS011;21737;42.868;25.320;2023-04-29T16:44:19;8.60;;;5.03;;
20038;SDS011;21737;42.868;25.320;2023-04-29T16:47:22;9.60;;;5.57;;
20038;SDS011;21737;42.868;25.320;2023-04-29T16:50:25;7.47;;;4.23;;
20038;SDS011;21737;42.868;25.320;2023-04-29T16:53:27;10.40;;;6.17;;
20038;SDS011;21737;42.868;25.320;2023-04-29T16:56:29;9.33;;;5.10;;
20038;SDS011;21737;42.868;25.320;2023-04-29T16:59:31;12.73;;;6.03;;
20038;SDS011;21737;42.868;25.320;2023-04-29T17:02:33;10.77;;;5.50;;
20038;SDS011;21737;42.868;25.320;2023-04-29T17:05:35;14.43;;;6.60;;
20038;SDS011;21737;42.868;25.320;2023-04-29T17:08:36;11.07;;;6.00;;
20038;SDS011;21737;42.868;25.320;2023-04-29T17:11:39;7.97;;;5.23;;
20038;SDS011;21737;42.868;25.320;2023-04-29T17:14:41;9.73;;;5.43;;
20038;SDS011;21737;42.868;25.320;2023-04-29T17:17:42;12.40;;;6.33;;
20038;SDS011;21737;42.868;25.320;2023-04-29T17:20:44;8.97;;;5.10;;
20038;SDS011;21737;42.868;25.320;2023-04-29T17:23:51;12.73;;;6.77;;
20038;SDS011;21737;42.868;25.320;2023-04-29T17:26:53;12.10;;;6.70;;
20038;SDS011;21737;42.868;25.320;2023-04-29T17:29:55;8.30;;;5.00;;
20038;SDS011;21737;42.868;25.320;2023-04-29T17:32:57;11.80;;;6.37;;
20038;SDS011;21737;42.868;25.320;2023-04-29T17:36:05;23.33;;;12.97;;
20038;SDS011;21737;42.868;25.320;2023-04-29T17:39:07;15.83;;;7.80;;
20038;SDS011;21737;42.868;25.320;2023-04-29T17:42:11;23.80;;;11.57;;
20038;SDS011;21737;42.868;25.320;2023-04-29T17:45:15;90.40;;;48.93;;
20038;SDS011;21737;42.868;25.320;2023-04-29T17:48:20;39.33;;;23.70;;
20038;SDS011;21737;42.868;25.320;2023-04-29T17:51:22;28.47;;;16.67;;
20038;SDS011;21737;42.868;25.320;2023-04-29T17:54:24;32.17;;;18.87;;
20038;SDS011;21737;42.868;25.320;2023-04-29T17:57:28;34.23;;;20.03;;
20038;SDS011;21737;42.868;25.320;2023-04-29T18:00:29;23.33;;;15.60;;
20038;SDS011;21737;42.868;25.320;2023-04-29T18:03:31;23.03;;;14.07;;
20038;SDS011;21737;42.868;25.320;2023-04-29T18:06:36;25.10;;;13.73;;
20038;SDS011;21737;42.868;25.320;2023-04-29T18:09:40;22.90;;;16.07;;
20038;SDS011;21737;42.868;25.320;2023-04-29T18:12:41;21.37;;;15.17;;
20038;SDS011;21737;42.868;25.320;2023-04-29T18:15:43;22.37;;;15.13;;
20038;SDS011;21737;42.868;25.320;2023-04-29T18:18:45;21.73;;;13.80;;
20038;SDS011;21737;42.868;25.320;2023-04-29T18:21:47;22.67;;;15.40;;
20038;SDS011;21737;42.868;25.320;2023-04-29T18:24:48;19.73;;;12.10;;
20038;SDS011;21737;42.868;25.320;2023-04-29T18:27:50;29.37;;;17.90;;
20038;SDS011;21737;42.868;25.320;2023-04-29T18:31:00;24.47;;;16.77;;
20038;SDS011;21737;42.868;25.320;2023-04-29T18:34:02;19.33;;;13.57;;
20038;SDS011;21737;42.868;25.320;2023-04-29T18:37:07;21.03;;;12.40;;
20038;SDS011;21737;42.868;25.320;2023-04-29T18:40:12;18.47;;;11.27;;